Time;durP1;ratioP1;P1;durP2;ratioP2;P2;SDS_P1;SDS_P2;PMS_P1;PMS_P2;Temp;Humidity;BMP_temperature;BMP_pressure;BME280_temperature;BME280_humidity;BME280_pressure;Samples;Min_cycle;Max_cycle;Signal;HPM_P1;HPM_P2
2022/02/25 00:00:20;;;;;;;5.63;2.28;;;7.20;65.00;;;6.30;49.26;94602.31;6129551;23;20566;-83
2022/02/25 00:02:47;;;;;;;4.88;2.63;;;7.20;64.90;;;6.38;49.09;94597.88;6105366;23;20169;-84
2022/02/25 00:05:14;;;;;;;4.85;2.67;;;7.20;65.20;;;6.48;49.12;94591.59;6103379;23;20271;-83
2022/02/25 00:07:42;;;;;;;5.40;2.60;;;7.30;65.40;;;6.41;49.04;94575.88;6129164;23;20174;-83
2022/02/25 00:10:10;;;;;;;6.53;2.85;;;7.30;65.60;;;6.67;49.75;94600.75;6130149;23;20264;-83
2022/02/25 00:12:39;;;;;;;8.93;2.58;;;7.30;65.90;;;6.78;49.12;94597.72;6105009;23;20446;-83
2022/02/25 00:15:06;;;;;;;5.82;2.60;;;7.40;65.90;;;6.85;49.26;94595.22;6104690;23;20260;-83
2022/02/25 00:17:37;;;;;;;4.88;2.60;;;7.50;65.70;;;6.92;49.45;94598.75;6105099;23;20182;-83
2022/02/25 00:20:05;;;;;;;5.10;2.30;;;7.50;66.60;;;6.95;50.17;94603.59;6105265;23;20181;-83
2022/02/25 00:22:32;;;;;;;3.90;2.33;;;7.60;66.00;;;7.02;49.63;94596.69;6129179;23;20173;-84
2022/02/25 00:24:59;;;;;;;5.55;2.55;;;7.60;65.90;;;7.08;49.73;94594.34;6129494;23;20505;-84
2022/02/25 00:27:26;;;;;;;3.88;2.53;;;7.70;65.90;;;7.10;49.91;94593.19;6153708;23;20245;-83
2022/02/25 00:29:54;;;;;;;5.90;2.70;;;7.80;66.00;;;7.19;50.28;94596.56;6129737;23;20197;-85
2022/02/25 00:32:22;;;;;;;6.88;2.75;;;7.80;66.30;;;7.27;49.96;94593.03;6129628;23;20216;-85
2022/02/25 00:34:50;;;;;;;5.43;2.40;;;7.90;66.20;;;7.30;49.72;94593.50;6153654;23;20196;-84
2022/02/25 00:37:17;;;;;;;5.35;2.30;;;7.90;66.10;;;7.33;49.79;94594.94;6153477;23;20178;-84
2022/02/25 00:39:44;;;;;;;7.07;2.50;;;7.90;66.00;;;7.32;49.80;94595.91;6153397;23;20193;-84
2022/02/25 00:42:13;;;;;;;5.22;2.42;;;8.00;66.00;;;7.18;49.82;94566.22;6105021;23;20204;-83
2022/02/25 00:44:40;;;;;;;7.10;2.30;;;8.00;66.00;;;7.35;49.95;94592.97;6129750;23;20694;-84
2022/02/25 00:47:08;;;;;;;5.82;2.70;;;8.10;66.10;;;7.35;49.95;94587.75;6104759;23;20709;-85
2022/02/25 00:49:35;;;;;;;6.05;2.40;;;8.10;66.10;;;7.34;50.17;94599.16;6081228;23;20205;-84
2022/02/25 00:52:03;;;;;;;4.50;2.20;;;8.10;66.20;;;7.30;49.90;94590.88;6129355;23;20175;-84
2022/02/25 00:54:30;;;;;;;4.80;2.40;;;8.10;66.10;;;7.36;49.91;94605.00;6105036;23;20437;-84
2022/02/25 00:56:58;;;;;;;7.45;3.03;;;8.10;66.10;;;7.36;50.27;94597.16;6128548;23;20247;-83
2022/02/25 00:59:25;;;;;;;4.05;2.35;;;8.10;66.10;;;7.30;50.07;94590.06;6129550;23;20220;-84
2022/02/25 01:01:52;;;;;;;6.22;2.90;;;8.10;66.10;;;7.21;50.51;94581.50;6129187;23;20165;-85
2022/02/25 01:04:20;;;;;;;6.20;3.30;;;8.10;66.40;;;7.42;50.20;94617.34;6104547;23;20201;-84
2022/02/25 01:06:48;;;;;;;6.18;2.80;;;8.20;66.50;;;7.39;50.38;94609.88;6153886;23;20557;-84
2022/02/25 01:09:15;;;;;;;9.23;2.80;;;8.20;66.50;;;7.50;50.81;94622.47;6153319;23;20199;-84
2022/02/25 01:11:42;;;;;;;4.75;2.58;;;8.20;66.50;;;7.55;50.80;94623.75;6129568;23;20565;-84
2022/02/25 01:14:10;;;;;;;4.70;2.20;;;8.20;66.60;;;7.48;50.49;94603.59;6104866;23;20208;-84
2022/02/25 01:16:37;;;;;;;5.78;2.80;;;8.20;66.60;;;7.58;50.86;94618.97;6129143;23;20197;-84
2022/02/25 01:19:04;;;;;;;8.15;2.58;;;8.30;66.70;;;7.60;50.76;94629.22;6127772;23;20840;-84
2022/02/25 01:21:31;;;;;;;6.32;2.60;;;8.30;66.70;;;7.60;51.59;94616.97;6104006;23;20162;-83
2022/02/25 01:23:58;;;;;;;5.07;2.90;;;8.30;67.20;;;7.65;51.74;94614.66;6153608;23;20201;-84
2022/02/25 01:26:27;;;;;;;5.82;2.47;;;8.40;67.30;;;7.73;51.18;94618.94;6129982;23;20244;-84
2022/02/25 01:28:54;;;;;;;6.10;2.80;;;8.40;67.10;;;7.82;51.78;94636.16;6107212;23;20580;-84
2022/02/25 01:31:23;;;;;;;5.40;2.55;;;8.50;67.30;;;7.79;51.14;94606.97;6106901;23;20197;-83
2022/02/25 01:33:50;;;;;;;9.05;2.65;;;8.40;67.10;;;7.76;51.38;94596.91;6131045;23;20631;-84
2022/02/25 01:36:17;;;;;;;6.50;2.63;;;8.50;67.10;;;7.91;50.83;94604.69;6131099;23;20212;-85
2022/02/25 01:38:45;;;;;;;5.72;2.70;;;8.50;67.10;;;8.06;50.68;94618.53;6155210;23;20211;-85
2022/02/25 01:41:12;;;;;;;5.18;2.50;;;8.60;67.00;;;8.09;50.76;94619.97;6130761;23;20181;-85
2022/02/25 01:43:40;;;;;;;4.68;2.80;;;8.60;66.90;;;8.11;50.83;94631.84;6155414;23;20698;-83
2022/02/25 01:46:07;;;;;;;5.95;2.85;;;8.70;67.00;;;8.20;51.01;94671.75;6130882;23;20178;-85
2022/02/25 01:48:35;;;;;;;6.53;2.85;;;8.70;67.30;;;8.23;51.52;94657.53;6130436;23;20197;-84
2022/02/25 01:51:04;;;;;;;6.32;2.90;;;8.70;67.70;;;8.27;52.00;94662.19;6105822;23;20594;-84
2022/02/25 01:53:32;;;;;;;3.40;2.30;;;8.80;68.00;;;8.33;51.95;94669.28;6106793;23;20276;-84
2022/02/25 01:55:59;;;;;;;5.13;2.50;;;8.80;68.00;;;8.39;51.31;94661.72;6106364;23;20525;-84
2022/02/25 01:58:26;;;;;;;3.50;1.80;;;8.80;67.80;;;8.40;51.02;94705.13;6154981;23;20719;-83
2022/02/25 02:00:53;;;;;;;3.70;1.90;;;8.80;67.60;;;8.40;51.29;94708.56;6155097;23;20169;-84
2022/02/25 02:03:20;;;;;;;5.07;2.08;;;8.90;67.40;;;8.35;50.74;94687.41;6130534;23;20189;-84
2022/02/25 02:05:50;;;;;;;3.75;2.20;;;8.90;67.20;;;8.33;50.57;94692.00;6130265;23;20244;-84
2022/02/25 02:08:17;;;;;;;2.33;1.65;;;8.90;67.10;;;8.33;50.44;94710.31;6155514;23;20190;-85
2022/02/25 02:10:45;;;;;;;2.35;1.40;;;8.90;67.00;;;8.34;50.28;94719.78;6130773;23;20169;-83
2022/02/25 02:13:13;;;;;;;2.35;1.60;;;8.80;66.80;;;8.30;50.04;94714.09;6130625;23;20208;-84
2022/02/25 02:15:40;;;;;;;1.45;1.27;;;8.80;66.60;;;8.28;50.09;94712.66;6154940;23;20237;-84
2022/02/25 02:18:08;;;;;;;2.17;1.30;;;8.80;66.50;;;8.25;49.80;94711.22;6106188;23;20197;-85
2022/02/25 02:20:35;;;;;;;3.47;1.55;;;8.80;66.50;;;8.22;49.91;94710.78;6129670;23;20268;-83
2022/02/25 02:23:03;;;;;;;1.73;1.20;;;8.80;66.40;;;8.18;49.93;94718.16;6155085;23;20197;-85
2022/02/25 02:25:30;;;;;;;2.15;1.20;;;8.80;66.30;;;8.12;49.90;94722.31;6155233;23;20608;-85
2022/02/25 02:30:44;;;;;;;1.10;0.98;;;8.70;66.10;;;7.81;50.04;94759.03;6110349;23;20506;-84
2022/02/25 02:33:12;;;;;;;1.20;1.10;;;8.60;66.20;;;7.58;50.25;94757.28;6105917;23;20650;-83
2022/02/25 02:35:39;;;;;;;1.05;0.98;;;8.50;66.00;;;7.48;50.48;94770.59;6106013;23;20216;-84
2022/02/25 02:38:07;;;;;;;0.90;0.90;;;8.40;66.10;;;7.29;50.18;94763.25;6130446;23;20406;-84
2022/02/25 02:40:34;;;;;;;1.20;1.00;;;8.30;66.10;;;7.00;51.41;94764.75;6129709;23;20204;-84
2022/02/25 02:43:01;;;;;;;1.30;0.90;;;8.10;66.30;;;6.88;51.38;94793.00;6154905;23;20204;-84
2022/02/25 02:45:29;;;;;;;1.00;1.00;;;8.00;66.80;;;6.67;51.66;94802.22;6130793;23;20193;-83
2022/02/25 02:47:57;;;;;;;1.13;1.00;;;7.80;66.80;;;6.48;52.04;94813.88;6154521;23;20182;-83
2022/02/25 02:50:24;;;;;;;1.20;1.10;;;7.70;66.90;;;6.30;53.21;94818.47;6154566;23;20639;-83
2022/02/25 02:52:51;;;;;;;0.90;0.90;;;7.50;67.50;;;6.05;53.99;94806.38;6105266;23;20208;-83
2022/02/25 02:55:18;;;;;;;0.90;0.90;;;7.30;67.60;;;5.95;54.01;94818.72;6154544;23;20239;-84
2022/02/25 02:57:47;;;;;;;2.58;1.00;;;7.20;67.80;;;5.79;53.66;94803.94;6129552;23;20182;-83
2022/02/25 03:00:14;;;;;;;0.80;0.80;;;7.00;67.70;;;5.66;54.04;94817.44;6105710;23;20265;-83
2022/02/25 03:02:42;;;;;;;1.00;1.00;;;6.90;68.10;;;5.58;54.80;94820.84;6154764;23;20189;-84
2022/02/25 03:05:10;;;;;;;1.00;1.00;;;6.80;68.40;;;5.49;54.23;94826.22;6105946;23;20212;-83
2022/02/25 03:07:39;;;;;;;2.63;1.10;;;6.60;68.60;;;5.39;54.89;94819.38;6105328;23;20220;-83
2022/02/25 03:10:10;;;;;;;0.98;0.98;;;6.60;68.90;;;5.37;55.26;94815.31;6129802;23;20184;-84
2022/02/25 03:12:40;;;;;;;1.15;1.10;;;6.40;68.90;;;5.32;55.68;94815.00;6130038;23;20177;-84
2022/02/25 03:15:13;;;;;;;0.80;0.80;;;6.40;69.20;;;5.28;55.26;94850.91;6130448;23;20201;-83
2022/02/25 03:17:42;;;;;;;1.02;1.02;;;6.30;69.00;;;5.21;55.91;94831.72;6105180;23;20197;-83
2022/02/25 03:20:13;;;;;;;1.20;1.00;;;6.20;69.40;;;5.18;55.92;94832.84;6130409;23;20564;-84
2022/02/25 03:22:40;;;;;;;1.23;1.10;;;6.20;69.40;;;5.10;55.94;94801.63;6105385;23;20208;-84
2022/02/25 03:25:13;;;;;;;1.00;1.00;;;6.10;69.40;;;5.13;55.50;94799.53;6129639;23;20211;-83
2022/02/25 03:27:42;;;;;;;0.90;0.90;;;6.10;69.40;;;5.11;55.53;94795.47;6105514;23;20169;-83
2022/02/25 03:30:10;;;;;;;1.00;1.00;;;6.00;69.30;;;5.05;55.77;94804.72;6130380;23;20180;-84
2022/02/25 03:32:39;;;;;;;0.95;0.95;;;6.00;69.50;;;4.97;55.69;94807.31;6129811;23;20228;-83
2022/02/25 03:35:06;;;;;;;2.13;1.00;;;6.00;69.60;;;4.97;56.05;94813.31;6129712;23;20173;-83
2022/02/25 03:37:34;;;;;;;1.25;1.15;;;6.00;69.70;;;4.98;55.90;94811.56;6080912;23;20197;-84
2022/02/25 03:40:02;;;;;;;1.20;1.10;;;5.90;69.60;;;4.97;56.02;94833.31;6129677;23;20197;-83
2022/02/25 03:42:29;;;;;;;0.93;0.93;;;5.90;69.60;;;4.93;55.60;94819.00;6129307;23;20256;-84
2022/02/25 03:44:56;;;;;;;2.30;1.02;;;5.90;69.70;;;4.90;55.54;94825.31;6129075;23;20232;-83
2022/02/25 03:47:23;;;;;;;1.17;1.10;;;5.90;69.70;;;4.93;55.45;94853.59;6105488;23;20177;-84
2022/02/25 03:49:50;;;;;;;1.40;1.10;;;5.80;69.40;;;4.90;56.02;94864.31;6154424;23;20209;-83
2022/02/25 03:52:20;;;;;;;0.82;0.80;;;5.80;69.50;;;4.79;55.31;94857.59;6153391;23;20611;-83
2022/02/25 03:54:47;;;;;;;1.40;1.20;;;5.80;69.60;;;4.91;56.00;94884.13;6129314;23;20197;-84
2022/02/25 03:57:15;;;;;;;2.47;1.27;;;5.80;70.50;;;4.69;56.25;94849.13;6127671;23;20252;-83
2022/02/25 03:59:42;;;;;;;0.88;0.88;;;5.80;69.80;;;4.89;56.10;94890.47;6153524;23;20193;-84
2022/02/25 04:02:09;;;;;;;1.00;0.98;;;5.80;69.80;;;4.88;56.12;94888.81;6129833;23;20612;-84
2022/02/25 04:04:36;;;;;;;1.30;1.20;;;5.70;69.70;;;4.84;56.10;94880.53;6153698;23;20212;-84
2022/02/25 04:07:04;;;;;;;1.85;1.60;;;5.70;69.90;;;4.78;56.32;94870.75;6129296;23;20181;-83
2022/02/25 04:09:31;;;;;;;1.10;1.00;;;5.70;69.90;;;4.79;55.85;94890.59;6105220;23;20197;-84
2022/02/25 04:12:02;;;;;;;1.00;1.00;;;5.70;69.80;;;4.75;56.13;94903.06;6105772;23;20644;-82
2022/02/25 04:14:29;;;;;;;2.03;1.20;;;5.70;69.80;;;4.73;56.33;94905.00;6153720;23;20224;-83
2022/02/25 04:16:56;;;;;;;1.98;1.13;;;5.70;69.90;;;4.75;56.08;94904.88;6153145;23;20214;-83
2022/02/25 04:19:24;;;;;;;1.13;1.10;;;5.60;69.90;;;4.68;56.58;94901.25;6154137;23;20196;-84
2022/02/25 04:21:50;;;;;;;1.33;1.20;;;5.60;70.00;;;4.70;56.21;94920.09;6129297;23;20177;-84
2022/02/25 04:24:18;;;;;;;5.43;1.20;;;5.60;70.00;;;4.68;55.72;94932.44;6153403;23;20208;-83
2022/02/25 04:26:45;;;;;;;1.17;1.10;;;5.60;69.80;;;4.67;55.71;94949.78;6104918;23;20181;-83
2022/02/25 04:29:12;;;;;;;1.30;1.20;;;5.60;69.90;;;4.63;56.32;94943.28;6153477;23;20203;-83
2022/02/25 04:31:40;;;;;;;1.30;1.20;;;5.50;69.80;;;4.62;55.25;94955.44;6153174;23;20232;-83
2022/02/25 04:34:08;;;;;;;1.42;1.20;;;5.50;69.70;;;4.59;55.01;94955.75;6081535;23;20565;-83
2022/02/25 04:36:36;;;;;;;3.15;1.30;;;5.50;69.60;;;4.55;55.78;94951.81;6105041;23;20640;-83
2022/02/25 04:39:06;;;;;;;1.77;1.33;;;5.50;69.60;;;4.52;55.36;94949.56;6129649;23;20193;-83
2022/02/25 04:41:35;;;;;;;2.38;1.52;;;5.50;69.40;;;4.51;55.01;94968.69;6153717;23;20700;-83
2022/02/25 04:44:03;;;;;;;1.50;1.40;;;5.50;69.30;;;4.47;55.24;94959.59;6153733;23;20197;-84
2022/02/25 04:46:30;;;;;;;1.55;1.45;;;5.40;69.20;;;4.47;55.07;94970.78;6128794;23;20180;-83
2022/02/25 04:48:57;;;;;;;1.40;1.30;;;5.40;69.20;;;4.49;55.00;94979.25;6129150;23;20275;-84
2022/02/25 04:51:25;;;;;;;2.03;1.40;;;5.40;69.20;;;4.47;55.27;94970.78;6129185;23;20252;-84
2022/02/25 04:53:53;;;;;;;1.30;1.20;;;5.40;69.20;;;4.51;54.77;94975.69;6153158;23;20555;-84
2022/02/25 04:56:20;;;;;;;1.60;1.50;;;5.40;69.20;;;4.53;54.80;94984.94;6153279;23;20189;-83
2022/02/25 04:58:48;;;;;;;1.77;1.67;;;5.40;69.20;;;4.56;54.29;94987.22;6153032;23;20276;-84
2022/02/25 05:01:15;;;;;;;1.50;1.40;;;5.40;69.30;;;4.60;54.63;94995.53;6104565;23;20181;-84
2022/02/25 05:03:43;;;;;;;1.60;1.50;;;5.40;69.20;;;4.55;54.60;94993.38;6152848;23;20203;-84
2022/02/25 05:06:10;;;;;;;2.20;1.40;;;5.40;69.20;;;4.52;54.04;94987.69;6128074;23;20174;-84
2022/02/25 05:08:41;;;;;;;1.50;1.40;;;5.40;69.10;;;4.64;54.34;95015.06;6126337;23;20208;-83
2022/02/25 05:11:08;;;;;;;1.33;1.23;;;5.40;69.10;;;4.64;54.44;95012.47;6102312;23;20216;-84
2022/02/25 05:13:35;;;;;;;1.40;1.30;;;5.50;69.10;;;4.67;54.14;95021.72;6128685;23;20217;-83
2022/02/25 05:21:35;;;;;;;1.40;1.15;;;5.50;69.00;;;4.70;54.08;95037.84;6154189;23;20169;-84
2022/02/25 05:24:02;;;;;;;1.20;1.10;;;5.50;68.90;;;4.72;54.17;95033.28;6128451;23;20638;-84
2022/02/25 05:26:29;;;;;;;1.40;1.15;;;5.50;69.00;;;4.73;53.91;95032.31;6127538;23;20251;-83
2022/02/25 05:28:57;;;;;;;1.35;1.20;;;5.50;68.90;;;4.76;53.96;95042.41;6103186;23;20216;-84
2022/02/25 05:31:24;;;;;;;1.40;1.30;;;5.50;68.90;;;4.61;53.65;95025.75;6152121;23;20232;-83
2022/02/25 05:33:53;;;;;;;2.40;1.45;;;5.60;68.90;;;4.79;53.97;95054.28;6152590;23;20195;-83
2022/02/25 05:36:20;;;;;;;1.25;1.13;;;5.60;68.90;;;4.83;53.71;95060.00;6127472;23;20208;-82
2022/02/25 05:38:49;;;;;;;1.50;1.38;;;5.60;68.90;;;4.85;53.82;95061.47;6125296;23;20204;-83
2022/02/25 05:41:17;;;;;;;1.35;1.25;;;5.70;69.00;;;4.86;53.76;95067.47;6150639;23;20181;-84
2022/02/25 05:43:44;;;;;;;1.67;1.30;;;5.70;69.00;;;4.86;53.81;95065.72;6101977;23;20204;-82
2022/02/25 05:46:11;;;;;;;1.48;1.20;;;5.70;69.00;;;4.91;54.00;95070.44;6150110;23;20204;-83
2022/02/25 05:48:39;;;;;;;2.05;1.10;;;5.70;68.90;;;4.93;53.97;95077.13;6101312;23;20651;-83
2022/02/25 05:51:06;;;;;;;1.30;1.20;;;5.70;69.00;;;4.93;53.86;95071.94;6101459;23;20260;-82
2022/02/25 05:53:33;;;;;;;1.10;1.00;;;5.70;68.90;;;4.97;53.91;95080.25;6126224;23;20487;-83
2022/02/25 05:56:01;;;;;;;1.70;1.35;;;5.70;68.80;;;4.94;53.56;95086.56;6125815;23;20178;-84
2022/02/25 05:58:28;;;;;;;1.67;1.30;;;5.80;69.00;;;4.95;54.17;95100.34;6125240;23;20213;-84
2022/02/25 06:00:55;;;;;;;2.22;1.10;;;5.80;68.90;;;4.95;54.11;95098.56;6125289;23;20185;-83
2022/02/25 06:03:23;;;;;;;1.25;1.00;;;5.80;68.90;;;4.94;53.67;95106.53;6151467;23;20309;-83
2022/02/25 06:05:50;;;;;;;1.15;1.10;;;5.80;68.90;;;4.94;53.84;95109.13;6150693;23;20547;-83
2022/02/25 06:08:18;;;;;;;1.23;1.15;;;5.80;68.90;;;4.83;54.14;95086.78;6128112;23;20209;-83
2022/02/25 06:10:46;;;;;;;1.23;1.17;;;5.70;68.80;;;4.85;54.05;95100.44;6126989;23;20224;-83
2022/02/25 06:13:13;;;;;;;1.10;1.10;;;5.80;69.00;;;4.80;54.31;95100.09;6150984;23;20220;-83
2022/02/25 06:15:41;;;;;;;1.00;1.00;;;5.80;69.00;;;4.84;54.05;95103.22;6129053;23;20178;-82
2022/02/25 06:18:09;;;;;;;0.90;0.90;;;5.70;68.90;;;4.85;53.96;95108.25;6152387;23;20209;-82
2022/02/25 06:20:37;;;;;;;2.55;1.38;;;5.70;68.80;;;4.77;54.26;95105.59;6127627;23;20181;-82
2022/02/25 06:23:05;;;;;;;1.85;1.20;;;5.70;68.80;;;4.74;54.51;95127.50;6127542;23;20746;-82
2022/02/25 06:25:33;;;;;;;1.20;1.10;;;5.70;68.90;;;4.72;54.83;95126.00;6126458;23;20188;-82
2022/02/25 06:28:03;;;;;;;1.00;1.00;;;5.70;68.90;;;4.60;54.22;95112.44;6127790;23;20227;-83
2022/02/25 06:30:30;;;;;;;1.10;1.00;;;5.60;68.80;;;4.62;54.40;95128.69;6103747;23;20189;-84
2022/02/25 06:32:57;;;;;;;1.52;1.05;;;5.60;68.80;;;4.60;54.37;95148.81;6102555;23;20667;-83
2022/02/25 06:35:28;;;;;;;1.40;1.20;;;5.60;68.80;;;4.57;54.56;95138.72;6127696;23;20247;-83
2022/02/25 06:37:56;;;;;;;1.20;1.13;;;5.60;69.10;;;4.57;54.64;95144.72;6151574;23;20706;-83
2022/02/25 06:40:24;;;;;;;1.20;1.10;;;5.50;69.00;;;4.57;54.30;95139.53;6127203;23;20235;-83
2022/02/25 06:42:52;;;;;;;1.48;1.38;;;5.50;69.00;;;4.57;54.57;95149.91;6126370;23;20181;-83
2022/02/25 06:45:21;;;;;;;1.10;1.10;;;5.50;69.20;;;4.55;54.46;95144.03;6128138;23;20182;-82
2022/02/25 06:47:48;;;;;;;1.20;1.13;;;5.50;69.10;;;4.52;54.52;95149.56;6126966;23;20217;-83
2022/02/25 06:50:17;;;;;;;1.30;1.20;;;5.50;69.10;;;4.54;54.42;95157.19;6127158;23;20205;-83
2022/02/25 06:52:46;;;;;;;1.10;1.10;;;5.50;69.20;;;4.46;54.33;95152.75;6151119;23;20659;-82
2022/02/25 06:55:16;;;;;;;2.10;1.20;;;5.50;69.10;;;4.46;54.67;95174.31;6102944;23;20179;-82
2022/02/25 06:58:03;;;;;;;1.23;1.13;;;5.40;69.30;;;4.46;54.69;95176.94;6109535;23;20216;-83
2022/02/25 07:00:34;;;;;;;1.08;1.08;;;5.40;69.20;;;4.40;54.69;95168.91;6151548;23;20609;-83
2022/02/25 07:03:05;;;;;;;1.52;1.30;;;5.40;69.20;;;4.45;54.59;95188.28;6103515;23;20248;-82
2022/02/25 07:05:33;;;;;;;1.10;1.10;;;5.40;69.20;;;4.48;54.41;95190.59;6127154;23;20173;-82
2022/02/25 07:08:01;;;;;;;1.33;1.23;;;5.40;69.20;;;4.50;54.74;95190.44;6126770;23;20198;-82
2022/02/25 07:10:32;;;;;;;2.30;1.00;;;5.40;69.20;;;4.45;54.75;95174.47;6126713;23;20244;-82
2022/02/25 07:13:01;;;;;;;2.00;1.40;;;5.40;69.30;;;4.61;54.83;95194.59;6127569;23;20217;-82
2022/02/25 07:15:28;;;;;;;1.13;1.13;;;5.40;69.30;;;4.70;54.59;95204.13;6128213;23;20165;-82
2022/02/25 07:17:58;;;;;;;1.17;1.10;;;5.50;69.40;;;4.78;54.23;95213.75;6126847;23;20209;-82
2022/02/25 07:20:26;;;;;;;1.85;0.90;;;5.50;69.40;;;4.74;53.87;95183.84;6078686;23;20208;-83
2022/02/25 07:22:54;;;;;;;2.38;1.10;;;5.50;69.40;;;4.97;53.99;95205.00;6127904;23;20253;-83
2022/02/25 07:25:22;;;;;;;1.10;1.00;;;5.60;69.40;;;5.05;53.78;95199.06;6150741;23;20541;-82
2022/02/25 07:27:51;;;;;;;1.00;1.00;;;5.60;69.30;;;5.16;53.75;95214.41;6102943;23;20675;-82
2022/02/25 07:30:19;;;;;;;1.30;1.20;;;5.70;69.30;;;5.24;53.58;95224.88;6152069;23;20173;-82
2022/02/25 07:32:46;;;;;;;1.50;1.30;;;5.80;69.20;;;5.31;53.63;95222.50;6126823;23;20492;-82
2022/02/25 07:35:13;;;;;;;1.27;1.20;;;5.80;69.00;;;5.33;53.05;95220.53;6126733;23;20174;-82
2022/02/25 07:37:41;;;;;;;1.20;1.20;;;5.90;69.00;;;5.37;53.05;95224.50;6126511;23;20245;-83
2022/02/25 07:40:12;;;;;;;1.10;1.10;;;6.00;68.80;;;5.44;52.56;95229.91;6126545;23;20201;-83
2022/02/25 07:42:41;;;;;;;1.67;1.10;;;6.00;68.80;;;5.33;53.03;95207.53;6128673;23;20678;-85
2022/02/25 07:45:09;;;;;;;1.25;1.15;;;6.10;68.80;;;5.53;53.03;95223.78;6154059;23;20178;-84
2022/02/25 07:47:38;;;;;;;1.65;1.25;;;6.20;68.70;;;5.60;52.87;95232.63;6129166;23;20508;-84
2022/02/25 07:50:11;;;;;;;1.40;1.30;;;6.20;68.80;;;5.73;52.59;95231.38;6129157;23;20180;-85
2022/02/25 07:52:39;;;;;;;1.80;1.42;;;6.20;68.60;;;5.81;52.51;95225.41;6128997;23;20239;-85
2022/02/25 07:55:08;;;;;;;2.03;1.20;;;6.30;68.60;;;5.85;52.48;95227.56;6155165;23;20504;-85
2022/02/25 07:57:36;;;;;;;1.10;1.10;;;6.40;68.50;;;5.84;52.19;95218.09;6129583;23;20540;-84
2022/02/25 08:00:21;;;;;;;1.30;1.20;;;6.50;68.40;;;5.80;52.09;95222.00;6132293;23;20189;-84
2022/02/25 08:02:48;;;;;;;1.30;1.20;;;6.50;68.00;;;5.80;51.70;95223.75;6129571;23;20193;-84
2022/02/25 08:05:16;;;;;;;1.17;1.08;;;6.50;68.10;;;5.78;52.10;95229.13;6105587;23;20247;-84
2022/02/25 08:07:44;;;;;;;1.52;1.30;;;6.50;68.00;;;5.73;52.07;95229.59;6129456;23;20174;-84
2022/02/25 08:10:12;;;;;;;1.75;1.50;;;6.50;67.90;;;5.79;51.91;95235.19;6130276;23;20263;-85
2022/02/25 08:12:42;;;;;;;1.60;1.30;;;6.50;68.00;;;5.81;52.15;95231.44;6129926;23;20240;-83
2022/02/25 08:15:11;;;;;;;2.78;1.40;;;6.50;68.00;;;5.69;52.03;95222.25;6129372;23;20173;-84
2022/02/25 08:17:39;;;;;;;1.52;1.30;;;6.50;67.90;;;5.85;51.96;95245.78;6081041;23;20205;-84
2022/02/25 08:20:07;;;;;;;1.52;1.40;;;6.50;68.50;;;5.81;51.72;95259.25;6128928;23;20184;-84
2022/02/25 08:22:35;;;;;;;1.80;1.30;;;6.50;67.70;;;5.82;51.74;95245.25;6129930;23;20252;-85
2022/02/25 08:25:04;;;;;;;2.75;1.30;;;6.50;67.80;;;5.81;51.55;95254.03;6154418;23;20170;-84
2022/02/25 08:27:34;;;;;;;1.40;1.30;;;6.50;67.70;;;5.83;51.47;95265.13;6105640;23;20619;-84
2022/02/25 08:30:05;;;;;;;3.35;1.50;;;6.50;67.70;;;5.82;50.61;95263.47;6129650;23;20173;-84
2022/02/25 08:32:34;;;;;;;3.53;1.65;;;6.50;67.20;;;5.82;50.22;95253.06;6129806;23;20232;-83
2022/02/25 08:35:02;;;;;;;1.40;1.27;;;6.50;66.90;;;5.83;50.49;95265.94;6129379;23;20173;-85
2022/02/25 08:37:29;;;;;;;1.50;1.10;;;6.40;67.10;;;5.84;50.38;95271.97;6129596;23;20215;-84
2022/02/25 08:39:58;;;;;;;1.33;1.23;;;6.50;67.00;;;5.80;50.19;95268.84;6104139;23;20240;-85
2022/02/25 08:42:25;;;;;;;2.13;1.20;;;6.50;67.00;;;5.88;50.40;95278.47;6130110;23;20639;-84
2022/02/25 08:44:53;;;;;;;1.45;1.00;;;6.40;67.10;;;5.92;50.39;95267.63;6105392;23;20679;-85
2022/02/25 08:47:22;;;;;;;1.42;1.25;;;6.50;67.10;;;5.83;49.94;95242.50;6129369;23;20604;-85
2022/02/25 08:49:50;;;;;;;1.50;1.40;;;6.50;66.90;;;5.94;49.97;95259.66;6153499;23;20624;-84
2022/02/25 08:52:17;;;;;;;1.75;1.30;;;6.50;66.90;;;6.19;50.30;95286.66;6127226;23;20232;-85
2022/02/25 08:54:44;;;;;;;1.67;1.52;;;6.60;67.30;;;6.15;49.55;95253.28;6127908;23;20636;-83
2022/02/25 08:57:11;;;;;;;1.45;1.33;;;6.60;66.70;;;6.29;49.70;95259.69;6150563;23;20220;-83
2022/02/25 08:59:42;;;;;;;1.52;1.42;;;6.70;67.00;;;6.45;49.35;95275.38;6150342;23;20232;-83
2022/02/25 09:02:10;;;;;;;2.83;1.60;;;6.80;66.70;;;6.46;47.95;95271.81;6123892;23;20683;-83
2022/02/25 09:04:42;;;;;;;2.80;1.52;;;6.80;65.80;;;6.54;47.12;95278.81;6149922;23;20263;-84
2022/02/25 09:07:11;;;;;;;1.92;1.33;;;6.90;65.60;;;6.67;48.27;95268.78;6150310;23;20719;-84
2022/02/25 09:09:40;;;;;;;1.52;1.30;;;6.90;66.20;;;6.88;48.79;95270.97;6124556;23;20193;-84
2022/02/25 09:12:10;;;;;;;1.92;1.52;;;7.10;66.60;;;7.03;48.08;95259.88;6128240;23;20170;-84
2022/02/25 09:14:37;;;;;;;2.70;2.45;;;7.10;66.20;;;7.24;47.99;95280.31;6152797;23;20531;-84
2022/02/25 09:17:05;;;;;;;1.50;1.40;;;7.30;66.50;;;7.34;46.94;95275.72;6127972;23;20182;-85
2022/02/25 09:19:32;;;;;;;3.00;1.60;;;7.40;65.80;;;7.39;47.40;95285.69;6152217;23;20260;-84
2022/02/25 09:21:59;;;;;;;1.30;1.20;;;7.50;65.70;;;7.35;46.99;95285.19;6153142;23;20277;-83
2022/02/25 09:24:26;;;;;;;2.50;1.48;;;7.60;65.40;;;7.33;45.10;95291.56;6151712;23;20189;-84
2022/02/25 09:26:54;;;;;;;1.55;1.35;;;7.70;64.20;;;7.12;45.94;95276.38;6126213;23;20177;-84
2022/02/25 09:29:21;;;;;;;1.65;1.25;;;7.70;64.20;;;7.16;45.85;95311.59;6126886;23;20301;-84
2022/02/25 09:31:48;;;;;;;2.95;1.40;;;7.70;64.10;;;7.08;46.17;95306.34;6125238;23;20177;-83
2022/02/25 09:34:16;;;;;;;1.40;1.23;;;7.70;63.60;;;6.95;45.28;95302.41;6101450;23;20280;-85
2022/02/25 09:36:43;;;;;;;2.15;1.50;;;7.60;63.10;;;6.89;45.33;95329.13;6125438;23;20550;-83
2022/02/25 09:39:14;;;;;;;2.42;1.40;;;7.60;63.00;;;6.75;45.54;95301.88;6125592;23;20522;-83
2022/02/25 09:41:42;;;;;;;1.23;1.20;;;7.60;63.10;;;6.75;45.31;95316.69;6150341;23;20170;-84
2022/02/25 09:44:12;;;;;;;1.42;1.15;;;7.50;63.10;;;6.65;45.18;95312.44;6126951;23;20627;-84
2022/02/25 09:46:39;;;;;;;1.73;1.40;;;7.50;62.80;;;6.66;45.79;95324.47;6126744;23;20608;-86
2022/02/25 09:49:06;;;;;;;1.33;1.20;;;7.40;64.00;;;6.69;45.31;95321.56;6128410;23;20192;-85
2022/02/25 09:51:36;;;;;;;1.63;1.30;;;7.40;63.10;;;6.72;45.82;95329.06;6128612;23;20201;-83
2022/02/25 09:54:05;;;;;;;1.58;1.48;;;7.30;63.30;;;6.74;45.38;95341.97;6127307;23;20586;-84
2022/02/25 09:56:33;;;;;;;1.52;1.20;;;7.30;63.00;;;6.72;45.72;95336.88;6127560;23;20205;-84
2022/02/25 09:59:01;;;;;;;2.80;1.60;;;7.30;63.40;;;6.53;45.81;95317.13;6125943;23;20221;-84
2022/02/25 10:01:34;;;;;;;2.50;1.65;;;7.30;63.60;;;6.54;45.87;95323.13;6154326;23;20193;-86
2022/02/25 10:04:20;;;;;;;1.77;1.40;;;7.30;63.40;;;6.69;45.73;95336.41;6104152;23;20197;-85
2022/02/25 10:06:48;;;;;;;2.05;1.40;;;7.20;62.60;;;6.76;45.82;95344.41;6127451;23;20173;-85
2022/02/25 10:09:34;;;;;;;2.75;1.40;;;7.20;63.50;;;6.80;45.39;95336.13;6127285;23;20197;-82
2022/02/25 10:12:10;;;;;;;1.50;1.40;;;7.10;63.30;;;6.84;45.31;95334.81;6151671;23;20204;-83
2022/02/25 10:14:46;;;;;;;1.25;1.20;;;7.20;63.60;;;6.87;45.25;95341.50;6127408;23;20193;-83
2022/02/25 10:17:15;;;;;;;1.35;1.25;;;7.20;63.50;;;6.94;45.43;95329.47;6104738;23;20176;-83
2022/02/25 10:19:55;;;;;;;1.88;1.45;;;7.20;63.20;;;6.95;44.57;95331.09;6127411;23;20533;-84
2022/02/25 10:22:32;;;;;;;1.48;1.23;;;7.20;63.00;;;7.01;44.96;95327.84;6127043;23;20527;-84
2022/02/25 10:25:10;;;;;;;3.40;1.40;;;7.30;63.00;;;7.19;44.88;95337.38;6103549;23;20211;-84
2022/02/25 10:27:42;;;;;;;3.08;1.50;;;7.30;63.50;;;7.31;44.89;95330.88;6127293;23;20191;-84
2022/02/25 10:30:15;;;;;;;1.67;1.42;;;7.50;63.50;;;7.40;43.96;95329.06;6126879;23;20224;-84
2022/02/25 10:32:51;;;;;;;1.52;1.42;;;7.50;63.20;;;7.37;44.36;95327.63;6151079;23;20181;-84
2022/02/25 10:35:33;;;;;;;4.00;2.95;;;7.60;63.00;;;7.41;43.91;95358.59;6127223;23;20169;-84
2022/02/25 10:38:17;;;;;;;2.17;1.60;;;7.70;62.90;;;7.40;43.92;95336.06;6102700;23;20197;-84
2022/02/25 10:40:48;;;;;;;4.05;1.55;;;7.70;62.30;;;7.36;43.37;95341.63;6127715;23;20185;-84
2022/02/25 10:43:21;;;;;;;1.70;1.60;;;7.80;62.10;;;7.36;43.70;95356.47;6103782;23;20209;-83
2022/02/25 10:45:52;;;;;;;1.95;1.55;;;7.80;62.20;;;7.32;43.98;95344.72;6155002;23;20177;-85